DLH4RP EDDF-EDDV
Flight info
| Callsign | DLH4RP |
|---|---|
| Flight time | 0h 34m |
| Altitude | 23000 |
| Route | MARUN3W MARUN Y153 WRB WRB1Z |
| Aircraft | A319/M-SDE3FGHIRWY/LB1 |
Departure
| Time | 2026-05-07 15:00 |
|---|---|
| Airport | Frankfurt Main Airport (EDDF) |
Arrival
| Time | 2026-05-07 15:34 |
|---|---|
| Airport | Hannover Airport (EDDV) |
| Time | Latitude | Longitude | Altitude | Speed | Heading |
|---|---|---|---|---|---|
| 2026-05-07 14:28 | 50.04997 | 8.57602 | 356 ft | 0 kts | 21° |
| 2026-05-07 14:49 | 50.04993 | 8.57599 | 360 ft | 3 kts | 21° |
| 2026-05-07 14:49 | 50.04973 | 8.57587 | 360 ft | 3 kts | 21° |
| 2026-05-07 14:50 | 50.04953 | 8.57574 | 359 ft | 3 kts | 28° |
| 2026-05-07 14:50 | 50.04936 | 8.57556 | 363 ft | 3 kts | 58° |
| 2026-05-07 14:50 | 50.04932 | 8.57537 | 363 ft | 2 kts | 115° |
| 2026-05-07 14:50 | 50.04927 | 8.57555 | 362 ft | 3 kts | 115° |
| 2026-05-07 14:51 | 50.04918 | 8.57585 | 357 ft | 3 kts | 115° |
| 2026-05-07 14:51 | 50.04909 | 8.57615 | 361 ft | 3 kts | 115° |
| 2026-05-07 14:51 | 50.04905 | 8.57628 | 359 ft | 0 kts | 115° |
| 2026-05-07 14:54 | 50.04902 | 8.57636 | 363 ft | 2 kts | 115° |
| 2026-05-07 14:55 | 50.04893 | 8.57669 | 357 ft | 6 kts | 112° |
| 2026-05-07 14:55 | 50.04870 | 8.57754 | 363 ft | 9 kts | 112° |
| 2026-05-07 14:55 | 50.04844 | 8.57848 | 362 ft | 10 kts | 114° |
| 2026-05-07 14:55 | 50.04784 | 8.57916 | 360 ft | 12 kts | 160° |
| 2026-05-07 14:56 | 50.04707 | 8.57889 | 362 ft | 12 kts | 232° |
| 2026-05-07 14:56 | 50.04673 | 8.57756 | 358 ft | 14 kts | 250° |
| 2026-05-07 14:56 | 50.04637 | 8.57604 | 359 ft | 15 kts | 250° |
| 2026-05-07 14:56 | 50.04574 | 8.57507 | 359 ft | 13 kts | 167° |
| 2026-05-07 14:57 | 50.04499 | 8.57562 | 362 ft | 11 kts | 149° |
| 2026-05-07 14:57 | 50.04464 | 8.57657 | 365 ft | 12 kts | 96° |
| 2026-05-07 14:57 | 50.04487 | 8.57789 | 367 ft | 13 kts | 69° |
| 2026-05-07 14:57 | 50.04521 | 8.57929 | 366 ft | 14 kts | 69° |
| 2026-05-07 14:58 | 50.04516 | 8.58070 | 365 ft | 14 kts | 146° |
| 2026-05-07 14:58 | 50.04426 | 8.58122 | 369 ft | 13 kts | 160° |
| 2026-05-07 14:58 | 50.04378 | 8.58127 | 367 ft | 6 kts | 223° |
| 2026-05-07 14:58 | 50.04369 | 8.58097 | 367 ft | 0 kts | 249° |
| 2026-05-07 14:59 | 50.04369 | 8.58095 | 367 ft | 0 kts | 249° |
| 2026-05-07 14:59 | 50.04362 | 8.58065 | 366 ft | 12 kts | 249° |
| 2026-05-07 14:59 | 50.04230 | 8.57516 | 364 ft | 96 kts | 249° |
| 2026-05-07 14:59 | 50.03915 | 8.56195 | 435 ft | 153 kts | 249° |
| 2026-05-07 15:00 | 50.03541 | 8.54625 | 1165 ft | 156 kts | 250° |
| 2026-05-07 15:00 | 50.03158 | 8.53024 | 1918 ft | 164 kts | 252° |
| 2026-05-07 15:00 | 50.02732 | 8.51242 | 2477 ft | 187 kts | 251° |
| 2026-05-07 15:00 | 50.01988 | 8.49447 | 3081 ft | 209 kts | 226° |
| 2026-05-07 15:01 | 50.00741 | 8.48245 | 4001 ft | 214 kts | 200° |
| 2026-05-07 15:01 | 49.99274 | 8.47803 | 5048 ft | 216 kts | 190° |
| 2026-05-07 15:01 | 49.97782 | 8.47471 | 6048 ft | 218 kts | 190° |
| 2026-05-07 15:01 | 49.96275 | 8.47128 | 6998 ft | 220 kts | 193° |
| 2026-05-07 15:02 | 49.94749 | 8.46477 | 7639 ft | 239 kts | 199° |
| 2026-05-07 15:02 | 49.93112 | 8.45709 | 8320 ft | 255 kts | 200° |
| 2026-05-07 15:02 | 49.91598 | 8.44283 | 9235 ft | 259 kts | 229° |
| 2026-05-07 15:02 | 49.90733 | 8.41866 | 10169 ft | 259 kts | 258° |
| 2026-05-07 15:03 | 49.90749 | 8.39094 | 11062 ft | 261 kts | 287° |
| 2026-05-07 15:03 | 49.91659 | 8.36672 | 11974 ft | 264 kts | 316° |
| 2026-05-07 15:03 | 49.93237 | 8.35166 | 12745 ft | 275 kts | 336° |
| 2026-05-07 15:03 | 49.95089 | 8.33955 | 13027 ft | 303 kts | 337° |
| 2026-05-07 15:04 | 49.97114 | 8.32656 | 13373 ft | 326 kts | 337° |
| 2026-05-07 15:04 | 49.99254 | 8.31285 | 14016 ft | 337 kts | 336° |
| 2026-05-07 15:04 | 50.01447 | 8.29903 | 14744 ft | 343 kts | 339° |
| 2026-05-07 15:04 | 50.03781 | 8.29036 | 15486 ft | 349 kts | 352° |
| 2026-05-07 15:05 | 50.06226 | 8.28971 | 16244 ft | 356 kts | 4° |
| 2026-05-07 15:05 | 50.08664 | 8.29764 | 17001 ft | 362 kts | 17° |
| 2026-05-07 15:05 | 50.10252 | 8.30603 | 17505 ft | 365 kts | 17° |
| 2026-05-07 15:05 | 50.12671 | 8.31883 | 18257 ft | 370 kts | 17° |
| 2026-05-07 15:06 | 50.15120 | 8.33171 | 18931 ft | 373 kts | 17° |
| 2026-05-07 15:06 | 50.17595 | 8.34466 | 19612 ft | 377 kts | 17° |
| 2026-05-07 15:06 | 50.20078 | 8.35764 | 20283 ft | 381 kts | 17° |
| 2026-05-07 15:06 | 50.22619 | 8.37095 | 20968 ft | 384 kts | 17° |
| 2026-05-07 15:07 | 50.25166 | 8.38428 | 21642 ft | 388 kts | 17° |
| 2026-05-07 15:07 | 50.27742 | 8.39780 | 22098 ft | 393 kts | 17° |
| 2026-05-07 15:07 | 50.30324 | 8.41145 | 22363 ft | 392 kts | 17° |
| 2026-05-07 15:07 | 50.32906 | 8.42538 | 22636 ft | 393 kts | 18° |
| 2026-05-07 15:08 | 50.35493 | 8.43953 | 22922 ft | 395 kts | 18° |
| 2026-05-07 15:08 | 50.38106 | 8.45388 | 23046 ft | 406 kts | 18° |
| 2026-05-07 15:08 | 50.40830 | 8.46883 | 23068 ft | 423 kts | 18° |
| 2026-05-07 15:08 | 50.43662 | 8.48437 | 23065 ft | 439 kts | 18° |
| 2026-05-07 15:09 | 50.46585 | 8.50041 | 23058 ft | 450 kts | 18° |
| 2026-05-07 15:09 | 50.49566 | 8.51632 | 23062 ft | 454 kts | 17° |
| 2026-05-07 15:09 | 50.52580 | 8.53128 | 23064 ft | 454 kts | 16° |
| 2026-05-07 15:09 | 50.55604 | 8.54554 | 23060 ft | 454 kts | 15° |
| 2026-05-07 15:10 | 50.58642 | 8.55954 | 23059 ft | 455 kts | 15° |
| 2026-05-07 15:10 | 50.61681 | 8.57352 | 23060 ft | 455 kts | 15° |
| 2026-05-07 15:10 | 50.64721 | 8.58771 | 23058 ft | 456 kts | 15° |
| 2026-05-07 15:10 | 50.67755 | 8.60213 | 23062 ft | 456 kts | 16° |
| 2026-05-07 15:11 | 50.70786 | 8.61673 | 23059 ft | 456 kts | 16° |
| 2026-05-07 15:11 | 50.73820 | 8.63148 | 23057 ft | 456 kts | 16° |
| 2026-05-07 15:11 | 50.76852 | 8.64627 | 23058 ft | 455 kts | 16° |
| 2026-05-07 15:11 | 50.79874 | 8.66097 | 23057 ft | 455 kts | 16° |
| 2026-05-07 15:12 | 50.82896 | 8.67603 | 23051 ft | 455 kts | 18° |
| 2026-05-07 15:12 | 50.85880 | 8.69285 | 23054 ft | 456 kts | 20° |
| 2026-05-07 15:12 | 50.88828 | 8.71125 | 23050 ft | 456 kts | 21° |
| 2026-05-07 15:12 | 50.91757 | 8.73060 | 23050 ft | 456 kts | 22° |
| 2026-05-07 15:13 | 50.94675 | 8.75021 | 23048 ft | 456 kts | 22° |
| 2026-05-07 15:13 | 50.97600 | 8.76971 | 23049 ft | 456 kts | 22° |
| 2026-05-07 15:13 | 51.00525 | 8.78886 | 23051 ft | 455 kts | 21° |
| 2026-05-07 15:13 | 51.03464 | 8.80777 | 23049 ft | 455 kts | 21° |
| 2026-05-07 15:14 | 51.06405 | 8.82642 | 23045 ft | 456 kts | 21° |
| 2026-05-07 15:14 | 51.09354 | 8.84505 | 23043 ft | 456 kts | 20° |
| 2026-05-07 15:14 | 51.12303 | 8.86370 | 23047 ft | 456 kts | 20° |
| 2026-05-07 15:14 | 51.15250 | 8.88242 | 23047 ft | 456 kts | 21° |
| 2026-05-07 15:15 | 51.18196 | 8.90121 | 23047 ft | 456 kts | 21° |
| 2026-05-07 15:15 | 51.21141 | 8.92010 | 23052 ft | 456 kts | 21° |
| 2026-05-07 15:15 | 51.24087 | 8.93911 | 23054 ft | 456 kts | 21° |
| 2026-05-07 15:15 | 51.27029 | 8.95815 | 23051 ft | 457 kts | 20° |
| 2026-05-07 15:16 | 51.29976 | 8.97718 | 23053 ft | 457 kts | 21° |
| 2026-05-07 15:16 | 51.32925 | 8.99625 | 23055 ft | 457 kts | 20° |
| 2026-05-07 15:16 | 51.35877 | 9.01532 | 23060 ft | 457 kts | 21° |
| 2026-05-07 15:16 | 51.38762 | 9.03399 | 23063 ft | 435 kts | 20° |
| 2026-05-07 15:17 | 51.41495 | 9.05176 | 23068 ft | 415 kts | 21° |
| 2026-05-07 15:17 | 51.44142 | 9.06899 | 23071 ft | 408 kts | 21° |
| 2026-05-07 15:17 | 51.46747 | 9.08593 | 22896 ft | 399 kts | 21° |
| 2026-05-07 15:17 | 51.49304 | 9.10234 | 22623 ft | 393 kts | 19° |
| 2026-05-07 15:18 | 51.51884 | 9.11355 | 22321 ft | 386 kts | 8° |
| 2026-05-07 15:18 | 51.54557 | 9.11959 | 21858 ft | 381 kts | 6° |
| 2026-05-07 15:18 | 51.57132 | 9.12509 | 21397 ft | 377 kts | 6° |
| 2026-05-07 15:18 | 51.59717 | 9.13058 | 20917 ft | 373 kts | 6° |
| 2026-05-07 15:19 | 51.62280 | 9.13605 | 20448 ft | 370 kts | 6° |
| 2026-05-07 15:19 | 51.64818 | 9.14153 | 19958 ft | 367 kts | 6° |
| 2026-05-07 15:19 | 51.67340 | 9.14699 | 19473 ft | 364 kts | 6° |
| 2026-05-07 15:19 | 51.69842 | 9.15239 | 18979 ft | 362 kts | 6° |
| 2026-05-07 15:20 | 51.72336 | 9.15777 | 18488 ft | 361 kts | 6° |
| 2026-05-07 15:20 | 51.74819 | 9.16313 | 17949 ft | 359 kts | 6° |
| 2026-05-07 15:20 | 51.77282 | 9.16848 | 17460 ft | 355 kts | 7° |
| 2026-05-07 15:20 | 51.79728 | 9.17388 | 16969 ft | 355 kts | 6° |
| 2026-05-07 15:21 | 51.82167 | 9.17923 | 16512 ft | 353 kts | 6° |
| 2026-05-07 15:21 | 51.84594 | 9.18450 | 16048 ft | 350 kts | 6° |
| 2026-05-07 15:21 | 51.87002 | 9.18972 | 15592 ft | 348 kts | 7° |
| 2026-05-07 15:21 | 51.89388 | 9.19494 | 15148 ft | 344 kts | 7° |
| 2026-05-07 15:22 | 51.91750 | 9.20021 | 14700 ft | 342 kts | 7° |
| 2026-05-07 15:22 | 51.94097 | 9.20563 | 14247 ft | 340 kts | 7° |
| 2026-05-07 15:22 | 51.96438 | 9.21111 | 13700 ft | 340 kts | 7° |
| 2026-05-07 15:22 | 51.98777 | 9.21665 | 13108 ft | 339 kts | 7° |
| 2026-05-07 15:23 | 52.01104 | 9.22218 | 12525 ft | 338 kts | 7° |
| 2026-05-07 15:23 | 52.03424 | 9.22769 | 11959 ft | 336 kts | 8° |
| 2026-05-07 15:23 | 52.05726 | 9.23318 | 11478 ft | 332 kts | 8° |
| 2026-05-07 15:23 | 52.07961 | 9.23851 | 11217 ft | 317 kts | 8° |
| 2026-05-07 15:24 | 52.10093 | 9.24357 | 10977 ft | 302 kts | 7° |
| 2026-05-07 15:24 | 52.12144 | 9.24840 | 10673 ft | 293 kts | 7° |
| 2026-05-07 15:24 | 52.14135 | 9.25307 | 10366 ft | 288 kts | 8° |
| 2026-05-07 15:24 | 52.16113 | 9.25769 | 9871 ft | 287 kts | 8° |
| 2026-05-07 15:25 | 52.18081 | 9.26231 | 9344 ft | 284 kts | 8° |
| 2026-05-07 15:25 | 52.20018 | 9.26690 | 8867 ft | 279 kts | 8° |
| 2026-05-07 15:25 | 52.21928 | 9.27147 | 8398 ft | 276 kts | 9° |
| 2026-05-07 15:25 | 52.23811 | 9.27602 | 7936 ft | 272 kts | 9° |
| 2026-05-07 15:26 | 52.25672 | 9.28051 | 7484 ft | 270 kts | 9° |
| 2026-05-07 15:26 | 52.27529 | 9.28495 | 7034 ft | 269 kts | 9° |
| 2026-05-07 15:26 | 52.29380 | 9.28935 | 6585 ft | 269 kts | 9° |
| 2026-05-07 15:26 | 52.31228 | 9.29373 | 6124 ft | 268 kts | 9° |
| 2026-05-07 15:27 | 52.33068 | 9.29812 | 5627 ft | 266 kts | 10° |
| 2026-05-07 15:27 | 52.34873 | 9.30241 | 5110 ft | 258 kts | 10° |
| 2026-05-07 15:27 | 52.36612 | 9.30653 | 4705 ft | 246 kts | 11° |
| 2026-05-07 15:27 | 52.38266 | 9.31045 | 4313 ft | 235 kts | 10° |
| 2026-05-07 15:28 | 52.39854 | 9.31421 | 3917 ft | 226 kts | 11° |
| 2026-05-07 15:28 | 52.41385 | 9.31785 | 3531 ft | 218 kts | 12° |
| 2026-05-07 15:28 | 52.42754 | 9.32616 | 3143 ft | 208 kts | 40° |
| 2026-05-07 15:28 | 52.43602 | 9.34442 | 2978 ft | 196 kts | 62° |
| 2026-05-07 15:29 | 52.44214 | 9.36361 | 2982 ft | 184 kts | 64° |
| 2026-05-07 15:29 | 52.44782 | 9.38233 | 2987 ft | 185 kts | 64° |
| 2026-05-07 15:29 | 52.45355 | 9.40122 | 2981 ft | 185 kts | 64° |
| 2026-05-07 15:29 | 52.45921 | 9.42014 | 2993 ft | 183 kts | 67° |
| 2026-05-07 15:30 | 52.46129 | 9.43994 | 2966 ft | 179 kts | 90° |
| 2026-05-07 15:30 | 52.46075 | 9.46015 | 2811 ft | 176 kts | 91° |
| 2026-05-07 15:30 | 52.46020 | 9.48015 | 2586 ft | 175 kts | 91° |
| 2026-05-07 15:30 | 52.45967 | 9.50035 | 2349 ft | 174 kts | 91° |
| 2026-05-07 15:31 | 52.45916 | 9.51989 | 2117 ft | 169 kts | 92° |
| 2026-05-07 15:31 | 52.45867 | 9.53862 | 1897 ft | 166 kts | 92° |
| 2026-05-07 15:31 | 52.45820 | 9.55681 | 1682 ft | 151 kts | 93° |
| 2026-05-07 15:31 | 52.45776 | 9.57339 | 1494 ft | 137 kts | 92° |
| 2026-05-07 15:32 | 52.45737 | 9.58824 | 1311 ft | 125 kts | 93° |
| 2026-05-07 15:32 | 52.45700 | 9.60216 | 1137 ft | 121 kts | 93° |
| 2026-05-07 15:32 | 52.45663 | 9.61596 | 969 ft | 123 kts | 91° |
| 2026-05-07 15:32 | 52.45625 | 9.62993 | 804 ft | 120 kts | 91° |
| 2026-05-07 15:33 | 52.45588 | 9.64384 | 632 ft | 124 kts | 91° |
| 2026-05-07 15:33 | 52.45550 | 9.65778 | 436 ft | 120 kts | 90° |
| 2026-05-07 15:33 | 52.45512 | 9.67110 | 286 ft | 117 kts | 91° |
| 2026-05-07 15:33 | 52.45480 | 9.68400 | 189 ft | 102 kts | 92° |
| 2026-05-07 15:34 | 52.45453 | 9.69292 | 190 ft | 59 kts | 93° |
| 2026-05-07 15:34 | 52.45436 | 9.69912 | 182 ft | 51 kts | 92° |
| 2026-05-07 15:34 | 52.45422 | 9.70410 | 182 ft | 28 kts | 92° |
| 2026-05-07 15:34 | 52.45438 | 9.70656 | 183 ft | 17 kts | 36° |
| 2026-05-07 15:35 | 52.45538 | 9.70673 | 179 ft | 8 kts | 1° |
| 2026-05-07 15:35 | 52.45579 | 9.70673 | 179 ft | 7 kts | 5° |
| 2026-05-07 15:35 | 52.45634 | 9.70647 | 179 ft | 10 kts | 318° |
| 2026-05-07 15:35 | 52.45652 | 9.70519 | 179 ft | 14 kts | 273° |
| 2026-05-07 15:36 | 52.45656 | 9.70349 | 179 ft | 16 kts | 272° |
| 2026-05-07 15:36 | 52.45662 | 9.70164 | 179 ft | 17 kts | 272° |
| 2026-05-07 15:36 | 52.45667 | 9.69973 | 179 ft | 17 kts | 272° |
| 2026-05-07 15:36 | 52.45673 | 9.69771 | 179 ft | 18 kts | 273° |
| 2026-05-07 15:37 | 52.45678 | 9.69562 | 179 ft | 16 kts | 273° |
| 2026-05-07 15:37 | 52.45752 | 9.69433 | 179 ft | 16 kts | 301° |
| 2026-05-07 15:37 | 52.45766 | 9.69267 | 179 ft | 12 kts | 292° |
| 2026-05-07 15:37 | 52.45811 | 9.69264 | 179 ft | 8 kts | 47° |
| 2026-05-07 15:38 | 52.45837 | 9.69309 | 179 ft | 2 kts | 47° |
| 2026-05-07 15:38 | 52.45843 | 9.69320 | 179 ft | 0 kts | 47° |